createdAt,value
2024-01-11T00:02:03.646Z,88.20
2024-01-11T00:04:37.076Z,88.00
2024-01-11T00:07:10.737Z,85.60
2024-01-11T00:09:46.371Z,89.60
2024-01-11T00:12:19.868Z,89.90
2024-01-11T00:14:53.231Z,88.00
2024-01-11T00:17:26.808Z,91.20
2024-01-11T00:20:00.299Z,89.80
2024-01-11T00:22:34.126Z,90.70
2024-01-11T00:25:09.493Z,90.40
2024-01-11T00:27:43.108Z,91.70
2024-01-11T00:30:17.063Z,89.30
2024-01-11T00:32:50.589Z,90.40
2024-01-11T00:35:24.089Z,92.20
2024-01-11T00:37:57.512Z,91.80
2024-01-11T00:40:31.033Z,93.00
2024-01-11T00:43:04.513Z,95.10
2024-01-11T00:45:37.874Z,90.70
2024-01-11T00:48:11.631Z,93.20
2024-01-11T00:50:45.113Z,90.70
2024-01-11T00:53:18.875Z,91.50
2024-01-11T00:55:53.085Z,95.10
2024-01-11T00:58:26.554Z,96.10
2024-01-11T01:01:00.007Z,94.40
2024-01-11T01:03:33.586Z,94.30
2024-01-11T01:06:07.677Z,90.80
2024-01-11T01:08:41.248Z,95.60
2024-01-11T01:11:14.911Z,94.10
2024-01-11T01:13:48.513Z,94.90
2024-01-11T01:16:21.933Z,91.10
2024-01-11T01:18:55.441Z,96.80
2024-01-11T01:21:29.218Z,94.80
2024-01-11T01:24:02.816Z,95.00
2024-01-11T01:26:36.234Z,95.60
2024-01-11T01:29:09.807Z,97.20
2024-01-11T01:31:43.148Z,97.10
2024-01-11T01:34:16.771Z,94.20
2024-01-11T01:36:50.182Z,98.20
2024-01-11T01:39:23.603Z,96.80
2024-01-11T01:41:57.032Z,92.50
2024-01-11T01:44:30.743Z,95.60
2024-01-11T01:47:04.872Z,96.70
2024-01-11T01:49:39.639Z,96.80
2024-01-11T01:52:16.299Z,97.80
2024-01-11T01:54:51.957Z,95.10
2024-01-11T01:57:25.410Z,96.80
2024-01-11T01:59:59.038Z,96.10
2024-01-11T02:02:33.701Z,96.70
2024-01-11T02:05:08.595Z,96.40
2024-01-11T02:07:42.127Z,96.20
2024-01-11T02:10:15.785Z,96.00
2024-01-11T02:12:49.154Z,98.30
2024-01-11T02:15:22.875Z,98.30
2024-01-11T02:17:56.382Z,99.70
2024-01-11T02:20:29.890Z,101.00
2024-01-11T02:23:07.738Z,98.50
2024-01-11T02:25:41.128Z,99.60
2024-01-11T02:28:14.473Z,100.10
2024-01-11T02:30:47.933Z,98.20
2024-01-11T02:33:21.719Z,98.80
2024-01-11T02:35:55.457Z,97.50
2024-01-11T02:38:28.923Z,99.70
2024-01-11T02:41:02.793Z,100.90
2024-01-11T02:43:37.057Z,98.30
2024-01-11T02:46:10.313Z,99.70
2024-01-11T02:48:43.704Z,95.60
2024-01-11T02:51:17.162Z,99.20
2024-01-11T02:53:50.464Z,101.00
2024-01-11T02:56:24.853Z,102.80
2024-01-11T02:58:58.219Z,101.90
2024-01-11T03:01:31.587Z,97.60
2024-01-11T03:04:05.102Z,105.00
2024-01-11T03:06:38.691Z,101.90
2024-01-11T03:09:12.357Z,98.40
2024-01-11T03:11:45.691Z,99.30
2024-01-11T03:14:19.162Z,101.10
2024-01-11T03:16:52.811Z,99.30
2024-01-11T03:19:26.181Z,99.60
2024-01-11T03:21:59.752Z,100.40
2024-01-11T03:24:33.173Z,100.50
2024-01-11T03:27:06.923Z,102.90
2024-01-11T03:29:40.307Z,101.80
2024-01-11T03:32:14.107Z,101.00
2024-01-11T03:34:47.438Z,98.00
2024-01-11T03:37:20.766Z,104.70
2024-01-11T03:39:54.046Z,102.90
2024-01-11T03:42:27.404Z,102.40
2024-01-11T03:45:00.745Z,104.50
2024-01-11T03:47:34.237Z,104.20
2024-01-11T03:50:08.955Z,102.50
2024-01-11T03:52:42.663Z,102.70
2024-01-11T03:55:16.205Z,102.70
2024-01-11T03:57:49.542Z,101.50
2024-01-11T04:00:23.307Z,104.60
2024-01-11T04:02:56.638Z,103.40
2024-01-11T04:05:30.173Z,103.30
2024-01-11T04:08:05.159Z,100.70
2024-01-11T04:10:38.732Z,102.10
2024-01-11T04:13:13.822Z,105.40
2024-01-11T04:15:47.685Z,105.50
2024-01-11T04:18:21.320Z,103.20
2024-01-11T04:20:55.042Z,106.50
2024-01-11T04:23:28.452Z,105.60
2024-01-11T04:26:01.910Z,104.00
2024-01-11T04:28:35.430Z,105.70
2024-01-11T04:31:10.032Z,108.20
2024-01-11T04:33:46.579Z,104.70
2024-01-11T04:36:20.046Z,103.70
2024-01-11T04:38:53.337Z,108.30
2024-01-11T04:41:26.917Z,105.50
2024-01-11T04:44:00.339Z,106.10
2024-01-11T04:46:33.803Z,104.80
2024-01-11T04:49:07.281Z,106.30
2024-01-11T04:51:40.740Z,105.30
2024-01-11T04:54:14.140Z,106.90
2024-01-11T04:56:47.544Z,105.40
2024-01-11T04:59:21.049Z,104.30
2024-01-11T05:01:54.445Z,108.70
2024-01-11T05:04:27.812Z,105.30
2024-01-11T05:07:01.288Z,105.10
2024-01-11T05:09:34.672Z,104.40
2024-01-11T05:12:09.560Z,107.60
2024-01-11T05:14:43.057Z,107.10
2024-01-11T05:17:16.840Z,105.50
2024-01-11T05:19:50.337Z,106.40
2024-01-11T05:22:23.720Z,105.40
2024-01-11T05:24:57.352Z,106.30
2024-01-11T05:27:30.670Z,104.70
2024-01-11T05:30:04.260Z,104.60
2024-01-11T05:32:37.850Z,106.70
2024-01-11T05:35:12.372Z,103.00
2024-01-11T05:37:45.864Z,105.90
2024-01-11T05:40:19.906Z,102.30
2024-01-11T05:42:53.511Z,102.20
2024-01-11T05:45:35.785Z,105.40
2024-01-11T05:48:15.552Z,107.60
2024-01-11T05:50:48.951Z,106.20
2024-01-11T05:53:22.660Z,106.30
2024-01-11T05:55:56.137Z,107.00
2024-01-11T05:58:29.493Z,108.50
2024-01-11T06:01:03.091Z,105.20
2024-01-11T06:03:36.544Z,110.40
2024-01-11T06:06:10.610Z,102.30
2024-01-11T06:08:44.967Z,104.70
2024-01-11T06:11:19.541Z,105.50
2024-01-11T06:13:53.016Z,103.70
2024-01-11T06:16:26.404Z,103.00
2024-01-11T06:19:00.061Z,104.40
2024-01-11T06:21:33.523Z,107.30
2024-01-11T06:24:07.261Z,106.30
2024-01-11T06:26:40.821Z,103.20
2024-01-11T06:29:14.211Z,102.60
2024-01-11T06:31:47.564Z,102.00
2024-01-11T06:34:20.962Z,106.50
2024-01-11T06:36:54.411Z,101.10
2024-01-11T06:39:27.819Z,100.60
2024-01-11T06:42:01.292Z,103.60
2024-01-11T06:44:34.931Z,100.50
2024-01-11T06:47:08.973Z,99.30
2024-01-11T06:49:44.661Z,102.70
2024-01-11T06:52:17.994Z,102.00
2024-01-11T06:54:51.312Z,100.60
2024-01-11T06:57:25.892Z,100.00
2024-01-11T06:59:59.386Z,97.90
2024-01-11T07:02:33.042Z,96.80
2024-01-11T07:05:06.843Z,96.00
2024-01-11T07:07:40.328Z,97.90
2024-01-11T07:10:14.596Z,97.70
2024-01-11T07:12:49.161Z,97.10
2024-01-11T07:15:22.605Z,95.90
2024-01-11T07:17:56.065Z,94.60
2024-01-11T07:20:29.459Z,89.30
2024-01-11T07:23:03.034Z,93.40
2024-01-11T07:25:36.522Z,90.30
2024-01-11T07:28:10.389Z,94.40
2024-01-11T07:30:44.058Z,98.30
2024-01-11T07:33:17.585Z,90.70
2024-01-11T07:35:51.744Z,87.40
2024-01-11T07:38:25.420Z,85.10
2024-01-11T07:40:58.947Z,89.50
2024-01-11T07:43:44.999Z,86.70
2024-01-11T07:46:32.592Z,88.30
2024-01-11T07:49:11.341Z,87.00
2024-01-11T07:51:44.741Z,82.90
2024-01-11T07:54:18.128Z,83.70
2024-01-11T07:56:51.806Z,82.10
2024-01-11T07:59:25.268Z,77.90
2024-01-11T08:01:58.952Z,81.70
2024-01-11T08:04:32.335Z,77.60
2024-01-11T08:07:06.713Z,78.20
2024-01-11T08:09:46.289Z,75.10
2024-01-11T08:12:19.945Z,74.80
2024-01-11T08:14:53.451Z,74.50
2024-01-11T08:17:26.977Z,73.90
2024-01-11T08:20:00.482Z,73.70
2024-01-11T08:22:35.629Z,74.30
2024-01-11T08:25:10.315Z,70.80
2024-01-11T08:27:43.987Z,72.90
2024-01-11T08:30:18.364Z,70.00
2024-01-11T08:32:51.759Z,71.00
2024-01-11T08:35:25.436Z,68.00
2024-01-11T08:37:58.961Z,66.90
2024-01-11T08:40:32.406Z,67.10
2024-01-11T08:43:07.592Z,65.10
2024-01-11T08:45:41.190Z,64.00
2024-01-11T08:48:14.711Z,62.10
2024-01-11T08:50:48.176Z,66.00
2024-01-11T08:53:22.691Z,61.00
2024-01-11T08:55:56.055Z,61.40
2024-01-11T08:58:29.381Z,58.10
2024-01-11T09:01:02.760Z,61.00
2024-01-11T09:03:36.526Z,60.10
2024-01-11T09:06:10.412Z,58.60
2024-01-11T09:08:44.006Z,60.10
2024-01-11T09:11:19.566Z,56.90
2024-01-11T09:13:52.956Z,57.20
2024-01-11T09:16:26.260Z,55.00
2024-01-11T09:19:01.296Z,54.80
2024-01-11T09:21:34.731Z,53.50
2024-01-11T09:24:08.545Z,51.90
2024-01-11T09:26:42.026Z,52.50
2024-01-11T09:29:15.466Z,52.30
2024-01-11T09:31:48.815Z,49.90
2024-01-11T09:34:22.176Z,49.20
2024-01-11T09:36:59.905Z,50.40
2024-01-11T09:39:33.800Z,48.90
2024-01-11T09:42:12.206Z,48.40
2024-01-11T09:44:46.065Z,44.20
2024-01-11T09:47:21.271Z,45.00
2024-01-11T09:49:57.164Z,43.50
2024-01-11T09:52:34.346Z,44.60
2024-01-11T09:55:10.250Z,43.00
2024-01-11T09:57:47.938Z,43.20
2024-01-11T10:00:27.005Z,43.70
2024-01-11T10:03:00.639Z,42.00
2024-01-11T10:05:35.572Z,41.20
2024-01-11T10:08:11.062Z,40.50
2024-01-11T10:10:44.741Z,41.00
2024-01-11T10:13:18.763Z,38.90
2024-01-11T10:15:52.213Z,40.50
2024-01-11T10:18:25.730Z,39.20
2024-01-11T10:21:00.859Z,39.30
2024-01-11T10:23:37.144Z,37.30
2024-01-11T10:26:10.757Z,37.80
2024-01-11T10:28:46.461Z,37.00
2024-01-11T10:31:22.332Z,37.50
2024-01-11T10:33:55.821Z,38.40
2024-01-11T10:36:32.569Z,36.30
2024-01-11T10:39:08.842Z,35.90
2024-01-11T10:41:49.078Z,36.00
2024-01-11T10:44:24.847Z,35.40
2024-01-11T10:47:00.427Z,34.70
2024-01-11T10:49:35.000Z,33.60
2024-01-11T10:52:14.102Z,32.60
2024-01-11T10:57:22.064Z,32.40
2024-01-11T10:59:56.970Z,30.60
2024-01-11T11:02:31.542Z,31.30
2024-01-11T11:05:06.858Z,32.10
2024-01-11T11:07:41.586Z,31.40
2024-01-11T11:10:16.498Z,31.20
2024-01-11T11:12:50.916Z,30.60
2024-01-11T11:15:25.781Z,30.30
2024-01-11T11:17:59.849Z,30.00
2024-01-11T11:20:33.741Z,30.00
2024-01-11T11:23:11.967Z,28.90
2024-01-11T11:25:47.086Z,30.10
2024-01-11T11:28:21.206Z,27.60
2024-01-11T11:30:58.851Z,27.70
2024-01-11T11:33:33.218Z,26.50
2024-01-11T11:36:08.656Z,27.10
2024-01-11T11:38:42.662Z,26.90
2024-01-11T11:41:18.971Z,26.20
2024-01-11T11:43:53.468Z,26.80
2024-01-11T11:46:27.486Z,25.60
2024-01-11T11:49:01.377Z,27.00
2024-01-11T11:51:37.084Z,27.20
2024-01-11T11:54:12.722Z,24.20
2024-01-11T11:56:46.500Z,25.10
2024-01-11T11:59:20.080Z,23.00
2024-01-11T12:01:54.632Z,23.80
2024-01-11T12:04:28.008Z,24.90
2024-01-11T12:07:01.551Z,23.10
2024-01-11T12:09:35.413Z,24.00
2024-01-11T12:12:15.656Z,23.10
2024-01-11T12:14:50.708Z,23.10
2024-01-11T12:17:24.310Z,23.30
2024-01-11T12:19:57.968Z,23.20
2024-01-11T12:22:31.408Z,23.10
2024-01-11T12:25:05.152Z,24.30
2024-01-11T12:27:38.537Z,24.80
2024-01-11T12:30:18.101Z,23.10
2024-01-11T12:32:52.037Z,24.80
2024-01-11T12:35:25.659Z,25.30
2024-01-11T12:38:01.323Z,24.80
2024-01-11T12:40:36.491Z,25.10
2024-01-11T12:43:10.597Z,24.10
2024-01-11T12:45:44.162Z,24.70
2024-01-11T12:48:18.827Z,24.00
2024-01-11T12:50:57.569Z,23.80
2024-01-11T12:53:37.598Z,23.00
2024-01-11T12:56:12.884Z,23.70
2024-01-11T12:58:47.739Z,24.10
2024-01-11T13:01:21.696Z,24.60
2024-01-11T13:03:55.122Z,24.70
2024-01-11T13:06:28.764Z,24.50
2024-01-11T13:09:03.084Z,25.30
2024-01-11T13:11:36.542Z,24.00
2024-01-11T13:14:15.700Z,25.00
2024-01-11T13:16:49.846Z,24.30
2024-01-11T13:19:27.291Z,23.80
2024-01-11T13:22:01.412Z,23.20
2024-01-11T13:24:35.887Z,23.20
2024-01-11T13:27:09.686Z,23.00
2024-01-11T13:29:43.259Z,22.60
2024-01-11T13:32:16.961Z,22.00
2024-01-11T13:34:51.036Z,22.40
2024-01-11T13:37:24.440Z,21.50
2024-01-11T13:40:00.797Z,21.90
2024-01-11T13:42:34.587Z,21.10
2024-01-11T13:45:12.290Z,21.60
2024-01-11T13:47:45.727Z,21.70
2024-01-11T13:50:21.715Z,20.20
2024-01-11T13:52:55.991Z,19.50
2024-01-11T13:55:30.817Z,19.30
2024-01-11T13:58:04.468Z,19.80
2024-01-11T14:00:38.453Z,19.30
2024-01-11T14:03:12.246Z,20.20
2024-01-11T14:05:45.875Z,20.00
2024-01-11T14:08:19.589Z,20.40
2024-01-11T14:10:53.145Z,19.40
2024-01-11T14:13:26.590Z,20.10
2024-01-11T14:16:00.080Z,19.00
2024-01-11T14:18:33.739Z,18.70
2024-01-11T14:21:07.569Z,18.40
2024-01-11T14:23:41.053Z,18.80
2024-01-11T14:26:14.828Z,18.80
2024-01-11T14:28:48.339Z,18.50
2024-01-11T14:31:21.782Z,17.80
2024-01-11T14:33:55.315Z,17.90
2024-01-11T14:36:29.201Z,18.50
2024-01-11T14:39:05.303Z,19.30
2024-01-11T14:41:39.243Z,18.50
2024-01-11T14:44:12.861Z,18.00
2024-01-11T14:46:46.493Z,17.70
2024-01-11T14:49:19.970Z,18.20
2024-01-11T14:51:53.774Z,18.50
2024-01-11T14:54:28.678Z,19.10
2024-01-11T14:57:02.162Z,17.70
2024-01-11T14:59:35.601Z,17.70
2024-01-11T15:02:10.419Z,18.10
2024-01-11T15:04:44.127Z,17.20
2024-01-11T15:07:17.615Z,17.50
2024-01-11T15:09:50.960Z,17.60
2024-01-11T15:12:24.457Z,18.70
2024-01-11T15:14:58.137Z,18.70
2024-01-11T15:17:31.903Z,17.30
2024-01-11T15:20:05.915Z,17.10
2024-01-11T15:22:39.332Z,17.40
2024-01-11T15:25:13.124Z,16.50
2024-01-11T15:27:46.606Z,17.60
2024-01-11T15:30:20.213Z,16.70
2024-01-11T15:32:54.149Z,17.30
2024-01-11T15:35:28.117Z,17.70
2024-01-11T15:38:02.106Z,15.80
2024-01-11T15:40:35.529Z,17.40
2024-01-11T15:43:09.451Z,16.10
2024-01-11T15:45:42.958Z,17.30
2024-01-11T15:48:16.572Z,16.80
2024-01-11T15:50:50.685Z,17.00
2024-01-11T15:53:24.154Z,17.60
2024-01-11T15:55:57.885Z,17.00
2024-01-11T15:58:31.258Z,15.80
2024-01-11T16:01:04.890Z,15.60
2024-01-11T16:03:38.832Z,16.50
2024-01-11T16:06:12.744Z,15.70
2024-01-11T16:08:48.436Z,16.40
2024-01-11T16:11:22.648Z,17.20
2024-01-11T16:13:56.125Z,16.50
2024-01-11T16:16:29.540Z,16.80
2024-01-11T16:19:03.205Z,16.60
2024-01-11T16:21:37.174Z,15.80
2024-01-11T16:24:21.917Z,15.40
2024-01-11T16:26:55.366Z,15.90
2024-01-11T16:29:29.075Z,15.50
2024-01-11T16:32:02.612Z,16.40
2024-01-11T16:34:38.106Z,15.60
2024-01-11T16:37:11.662Z,15.70
2024-01-11T16:39:45.334Z,16.00
2024-01-11T16:42:19.618Z,15.60
2024-01-11T16:44:53.065Z,15.90
2024-01-11T16:47:26.501Z,15.40
2024-01-11T16:50:00.397Z,16.70
2024-01-11T16:52:34.536Z,16.40
2024-01-11T16:55:09.112Z,16.40
2024-01-11T16:57:43.101Z,15.80
2024-01-11T17:00:20.428Z,15.80
2024-01-11T17:02:55.006Z,15.30
2024-01-11T17:05:29.996Z,16.60
2024-01-11T17:08:04.475Z,16.30
2024-01-11T17:10:39.005Z,17.00
2024-01-11T17:13:12.689Z,15.70
2024-01-11T17:15:46.391Z,16.20
2024-01-11T17:18:20.039Z,14.90
2024-01-11T17:20:54.497Z,15.40
2024-01-11T17:23:28.117Z,16.00
2024-01-11T17:26:04.634Z,15.70
2024-01-11T17:28:38.465Z,15.80
2024-01-11T17:31:11.954Z,15.80
2024-01-11T17:33:47.792Z,15.40
2024-01-11T17:36:21.726Z,16.70
2024-01-11T17:38:55.837Z,15.50
2024-01-11T17:41:29.299Z,16.30
2024-01-11T17:44:03.557Z,15.00
2024-01-11T17:46:37.915Z,15.80
2024-01-11T17:49:14.687Z,15.30
2024-01-11T17:51:48.107Z,14.70
2024-01-11T17:54:21.546Z,14.40
2024-01-11T17:56:55.217Z,16.30
2024-01-11T17:59:29.132Z,15.40
2024-01-11T18:02:03.651Z,14.40
2024-01-11T18:04:37.055Z,15.70
2024-01-11T18:07:12.076Z,14.60
2024-01-11T18:09:46.201Z,16.40
2024-01-11T18:12:20.370Z,15.90
2024-01-11T18:14:53.920Z,15.40
2024-01-11T18:17:27.714Z,15.10
2024-01-11T18:20:01.820Z,16.10
2024-01-11T18:22:35.746Z,15.50
2024-01-11T18:25:11.278Z,14.80
2024-01-11T18:27:45.208Z,15.40
2024-01-11T18:30:19.489Z,15.90
2024-01-11T18:32:53.016Z,15.30
2024-01-11T18:35:26.548Z,15.40
2024-01-11T18:38:00.621Z,15.10
2024-01-11T18:40:34.199Z,15.80
2024-01-11T18:43:08.015Z,15.60
2024-01-11T18:45:41.688Z,15.00
2024-01-11T18:48:15.342Z,15.80
2024-01-11T18:50:49.081Z,14.70
2024-01-11T18:53:23.154Z,15.00
2024-01-11T18:55:57.914Z,16.70
2024-01-11T18:58:31.547Z,14.60
2024-01-11T19:01:09.192Z,14.40
2024-01-11T19:03:42.948Z,15.30
2024-01-11T19:06:16.478Z,15.00
2024-01-11T19:08:50.077Z,16.40
2024-01-11T19:11:23.740Z,14.90
2024-01-11T19:13:57.853Z,14.60
2024-01-11T19:16:31.345Z,14.60
2024-01-11T19:19:05.508Z,14.70
2024-01-11T19:21:41.170Z,15.30
2024-01-11T19:24:14.635Z,15.50
2024-01-11T19:26:57.972Z,15.60
2024-01-11T19:29:51.588Z,14.60
2024-01-11T19:32:29.994Z,14.50
2024-01-11T19:35:03.583Z,15.50
2024-01-11T19:37:37.065Z,15.10
2024-01-11T19:40:12.718Z,13.90
2024-01-11T19:42:47.614Z,15.00
2024-01-11T19:45:21.226Z,14.40
2024-01-11T19:47:54.854Z,15.30
2024-01-11T19:50:28.554Z,14.70
2024-01-11T19:53:02.052Z,13.70
2024-01-11T19:55:38.420Z,14.20
2024-01-11T19:58:11.848Z,14.30
2024-01-11T20:00:45.185Z,14.10
2024-01-11T20:03:18.568Z,13.40
2024-01-11T20:05:52.213Z,14.40
2024-01-11T20:08:25.837Z,14.80
2024-01-11T20:11:00.996Z,13.00
2024-01-11T20:13:34.638Z,13.80
2024-01-11T20:16:09.495Z,13.80
2024-01-11T20:18:44.348Z,14.20
2024-01-11T20:21:18.132Z,13.70
2024-01-11T20:23:51.717Z,13.20
2024-01-11T20:26:27.482Z,13.80
2024-01-11T20:29:05.130Z,13.90
2024-01-11T20:31:41.137Z,13.50
2024-01-11T20:34:15.327Z,13.20
2024-01-11T20:36:48.744Z,12.90
2024-01-11T20:39:22.269Z,13.10
2024-01-11T20:41:58.482Z,12.90
2024-01-11T20:44:32.116Z,13.30
2024-01-11T20:47:05.842Z,12.70
2024-01-11T20:49:39.375Z,12.50
2024-01-11T20:52:12.914Z,12.30
2024-01-11T20:54:46.226Z,13.30
2024-01-11T20:57:19.916Z,12.70
2024-01-11T20:59:53.280Z,12.50
2024-01-11T21:02:26.722Z,12.10
2024-01-11T21:05:00.232Z,12.30
2024-01-11T21:07:33.723Z,12.50
2024-01-11T21:10:08.048Z,12.40
2024-01-11T21:12:41.388Z,13.20
2024-01-11T21:15:15.093Z,12.30
2024-01-11T21:17:48.639Z,11.50
2024-01-11T21:20:22.374Z,11.60
2024-01-11T21:22:55.799Z,12.20
2024-01-11T21:25:29.173Z,11.30
2024-01-11T21:28:03.926Z,11.30
2024-01-11T21:30:37.340Z,11.40
2024-01-11T21:33:11.011Z,12.20
2024-01-11T21:35:45.104Z,12.00
2024-01-11T21:38:18.603Z,10.20
2024-01-11T21:40:52.875Z,11.20
2024-01-11T21:43:26.346Z,10.50
2024-01-11T21:45:59.702Z,11.60
2024-01-11T21:48:33.209Z,11.20
2024-01-11T21:51:07.287Z,10.70
2024-01-11T21:53:43.098Z,11.30
2024-01-11T21:56:19.660Z,11.30
2024-01-11T21:58:53.101Z,9.60
2024-01-11T22:01:28.246Z,10.40
2024-01-11T22:04:01.748Z,10.20
2024-01-11T22:06:35.250Z,10.50
2024-01-11T22:09:09.277Z,10.20
2024-01-11T22:11:42.760Z,10.20
2024-01-11T22:14:16.161Z,9.60
2024-01-11T22:16:49.778Z,10.10
2024-01-11T22:19:23.549Z,9.70
2024-01-11T22:21:57.048Z,9.30
2024-01-11T22:24:30.438Z,9.20
2024-01-11T22:27:10.981Z,9.80
2024-01-11T22:29:44.444Z,9.70
2024-01-11T22:32:18.152Z,8.80
2024-01-11T22:34:51.684Z,8.90
2024-01-11T22:37:25.247Z,9.10
2024-01-11T22:39:58.913Z,9.30
2024-01-11T22:42:33.649Z,9.60
2024-01-11T22:45:08.390Z,8.90
2024-01-11T22:47:42.265Z,8.90
2024-01-11T22:50:17.314Z,9.20
2024-01-11T22:52:50.730Z,8.60
2024-01-11T22:55:26.690Z,8.10
2024-01-11T22:58:00.257Z,7.90
2024-01-11T23:00:33.644Z,8.10
2024-01-11T23:03:07.526Z,8.40
2024-01-11T23:05:41.539Z,8.20
2024-01-11T23:08:15.226Z,8.30
2024-01-11T23:10:48.764Z,9.90
2024-01-11T23:13:22.266Z,8.40
2024-01-11T23:15:55.610Z,8.20
2024-01-11T23:18:29.345Z,8.30
2024-01-11T23:21:03.053Z,8.30
2024-01-11T23:23:36.645Z,8.40
2024-01-11T23:26:10.235Z,8.10
2024-01-11T23:28:43.733Z,7.40
2024-01-11T23:31:17.335Z,7.50
2024-01-11T23:33:50.879Z,8.10
2024-01-11T23:36:24.520Z,7.80
2024-01-11T23:38:58.065Z,8.10
2024-01-11T23:41:31.556Z,7.80
2024-01-11T23:44:05.266Z,7.50
2024-01-11T23:46:38.569Z,7.60
2024-01-11T23:49:12.018Z,7.80
2024-01-11T23:51:45.614Z,7.00
2024-01-11T23:54:19.145Z,7.30
2024-01-11T23:56:52.843Z,7.50
2024-01-11T23:59:26.358Z,7.50
